createdAt,value
2017-08-28T00:02:22.263Z,15.55
2017-08-28T00:04:49.835Z,9.90
2017-08-28T00:07:17.555Z,10.50
2017-08-28T00:09:45.057Z,12.93
2017-08-28T00:12:12.622Z,12.68
2017-08-28T00:14:40.984Z,11.07
2017-08-28T00:17:08.513Z,14.18
2017-08-28T00:19:36.060Z,12.20
2017-08-28T00:22:03.676Z,21.00
2017-08-28T00:24:31.258Z,13.02
2017-08-28T00:26:58.822Z,17.62
2017-08-28T00:29:26.409Z,14.40
2017-08-28T00:31:53.972Z,17.62
2017-08-28T00:34:21.555Z,11.27
2017-08-28T00:36:49.093Z,13.93
2017-08-28T00:39:16.683Z,12.73
2017-08-28T00:41:44.215Z,12.57
2017-08-28T00:44:11.747Z,13.05
2017-08-28T00:46:39.329Z,10.90
2017-08-28T00:49:06.840Z,17.40
2017-08-28T00:51:34.443Z,10.27
2017-08-28T00:54:01.983Z,12.23
2017-08-28T00:56:29.560Z,14.80
2017-08-28T00:58:57.301Z,13.10
2017-08-28T01:01:24.851Z,11.70
2017-08-28T01:03:52.370Z,23.30
2017-08-28T01:06:19.932Z,11.10
2017-08-28T01:08:47.526Z,12.05
2017-08-28T01:11:15.073Z,13.70
2017-08-28T01:13:42.656Z,14.75
2017-08-28T01:16:10.200Z,14.68
2017-08-28T01:18:37.736Z,13.23
2017-08-28T01:21:05.326Z,13.48
2017-08-28T01:23:32.848Z,12.85
2017-08-28T01:26:00.421Z,13.40
2017-08-28T01:28:28.017Z,15.98
2017-08-28T01:30:55.576Z,15.55
2017-08-28T01:33:23.132Z,12.00
2017-08-28T01:35:50.848Z,10.55
2017-08-28T01:38:18.395Z,10.57
2017-08-28T01:40:45.936Z,9.43
2017-08-28T01:43:13.536Z,13.55
2017-08-28T01:45:41.091Z,10.65
2017-08-28T01:48:08.613Z,12.30
2017-08-28T01:50:36.245Z,9.88
2017-08-28T01:53:03.761Z,15.02
2017-08-28T01:55:31.343Z,11.15
2017-08-28T01:57:59.104Z,11.40
2017-08-28T02:00:26.632Z,12.85
2017-08-28T02:02:54.179Z,13.90
2017-08-28T02:05:21.743Z,15.43
2017-08-28T02:07:49.312Z,13.25
2017-08-28T02:10:16.884Z,13.02
2017-08-28T02:12:44.486Z,10.80
2017-08-28T02:15:12.026Z,16.60
2017-08-28T02:17:39.588Z,10.57
2017-08-28T02:20:07.207Z,14.68
2017-08-28T02:22:34.696Z,18.17
2017-08-28T02:25:02.295Z,14.10
2017-08-28T02:27:30.040Z,12.27
2017-08-28T02:29:57.602Z,10.50
2017-08-28T02:32:25.149Z,11.50
2017-08-28T02:34:52.921Z,14.15
2017-08-28T02:37:20.485Z,14.43
2017-08-28T02:39:48.019Z,14.52
2017-08-28T02:42:15.581Z,13.90
2017-08-28T02:44:43.133Z,12.82
2017-08-28T02:47:10.666Z,13.25
2017-08-28T02:49:38.196Z,17.50
2017-08-28T02:52:05.770Z,13.85
2017-08-28T02:54:33.289Z,9.80
2017-08-28T02:57:01.452Z,14.20
2017-08-28T02:59:29.020Z,12.63
2017-08-28T03:01:57.485Z,11.10
2017-08-28T03:04:25.021Z,12.07
2017-08-28T03:06:53.502Z,9.35
2017-08-28T03:09:21.029Z,8.90
2017-08-28T03:11:48.601Z,9.25
2017-08-28T03:14:16.135Z,14.43
2017-08-28T03:16:43.660Z,12.37
2017-08-28T03:19:11.221Z,21.65
2017-08-28T03:21:38.758Z,16.50
2017-08-28T03:24:06.308Z,11.73
2017-08-28T03:26:33.918Z,12.10
2017-08-28T03:29:01.466Z,13.05
2017-08-28T03:31:28.977Z,17.52
2017-08-28T03:33:56.503Z,13.30
2017-08-28T03:36:24.089Z,13.13
2017-08-28T03:38:51.643Z,15.32
2017-08-28T03:41:19.279Z,18.52
2017-08-28T03:43:46.859Z,16.70
2017-08-28T03:46:14.460Z,14.23
2017-08-28T03:48:42.096Z,14.65
2017-08-28T03:51:09.674Z,18.35
2017-08-28T03:53:37.223Z,16.70
2017-08-28T03:56:05.032Z,19.27
2017-08-28T03:58:32.855Z,17.55
2017-08-28T04:01:00.411Z,17.27
2017-08-28T04:03:28.007Z,17.67
2017-08-28T04:05:55.543Z,20.80
2017-08-28T04:08:23.101Z,17.45
2017-08-28T04:10:50.715Z,19.95
2017-08-28T04:13:18.530Z,20.80
2017-08-28T04:15:46.085Z,22.55
2017-08-28T04:18:13.824Z,17.02
2017-08-28T04:20:41.361Z,19.05
2017-08-28T04:23:08.896Z,15.93
2017-08-28T04:25:36.451Z,17.48
2017-08-28T04:28:04.041Z,19.05
2017-08-28T04:30:32.388Z,15.60
2017-08-28T04:32:59.979Z,18.95
2017-08-28T04:35:27.536Z,20.00
2017-08-28T04:37:55.108Z,18.12
2017-08-28T04:40:22.682Z,16.17
2017-08-28T04:42:50.187Z,18.92
2017-08-28T04:45:17.796Z,19.10
2017-08-28T04:47:45.369Z,13.43
2017-08-28T04:50:12.924Z,16.60
2017-08-28T04:55:30.821Z,11.18
2017-08-28T04:57:58.372Z,9.02
2017-08-28T05:00:26.109Z,9.57
2017-08-28T05:02:53.673Z,10.02
2017-08-28T05:05:22.054Z,7.05
2017-08-28T05:07:49.643Z,10.38
2017-08-28T05:10:17.182Z,9.88
2017-08-28T05:12:44.727Z,11.10
2017-08-28T05:15:12.364Z,7.00
2017-08-28T05:17:39.913Z,9.25
2017-08-28T05:20:07.415Z,7.10
2017-08-28T05:22:35.013Z,8.63
2017-08-28T05:25:02.586Z,6.37
2017-08-28T05:27:30.092Z,5.97
2017-08-28T05:29:57.788Z,4.60
2017-08-28T05:32:25.348Z,5.07
2017-08-28T05:34:52.847Z,8.67
2017-08-28T05:37:20.467Z,3.00
2017-08-28T05:39:48.019Z,4.23
2017-08-28T05:42:15.514Z,2.93
2017-08-28T05:44:43.069Z,5.17
2017-08-28T05:47:10.619Z,2.83
2017-08-28T05:49:38.184Z,3.30
2017-08-28T05:52:05.876Z,3.33
2017-08-28T05:54:33.438Z,3.60
2017-08-28T05:57:00.942Z,3.67
2017-08-28T05:59:28.479Z,4.77
2017-08-28T06:01:56.069Z,3.73
2017-08-28T06:04:23.679Z,9.13
2017-08-28T06:06:51.450Z,4.70
2017-08-28T06:09:19.001Z,9.20
2017-08-28T06:11:46.558Z,4.90
2017-08-28T06:14:14.156Z,2.00
2017-08-28T06:16:41.704Z,2.30
2017-08-28T06:19:09.281Z,4.83
2017-08-28T06:24:29.550Z,2.20
2017-08-28T06:26:57.769Z,3.90
2017-08-28T06:29:25.317Z,2.30
2017-08-28T06:31:52.878Z,3.33
2017-08-28T06:34:20.507Z,6.03
2017-08-28T06:36:48.063Z,2.67
2017-08-28T06:39:15.607Z,2.63
2017-08-28T06:41:43.150Z,3.03
2017-08-28T06:44:10.723Z,1.70
2017-08-28T06:46:38.312Z,3.90
2017-08-28T06:49:06.041Z,3.83
2017-08-28T06:51:34.336Z,1.43
2017-08-28T06:54:01.893Z,3.00
2017-08-28T06:56:29.479Z,7.40
2017-08-28T06:58:57.057Z,2.57
2017-08-28T07:01:24.582Z,15.67
2017-08-28T07:03:52.162Z,3.57
2017-08-28T07:06:19.724Z,5.87
2017-08-28T07:08:47.486Z,3.07
2017-08-28T07:11:15.056Z,1.20
2017-08-28T07:13:43.584Z,1.40
2017-08-28T07:16:17.078Z,1.20
2017-08-28T07:18:44.670Z,4.50
2017-08-28T07:21:12.239Z,1.20
2017-08-28T07:23:39.819Z,1.13
2017-08-28T07:26:07.322Z,3.33
2017-08-28T07:28:34.859Z,1.00
2017-08-28T07:31:02.465Z,1.10
2017-08-28T07:33:30.021Z,2.67
2017-08-28T07:35:57.595Z,2.40
2017-08-28T07:38:25.131Z,4.20
2017-08-28T07:40:52.675Z,1.23
2017-08-28T07:43:20.236Z,1.40
2017-08-28T07:45:48.652Z,3.40
2017-08-28T07:48:16.198Z,3.00
2017-08-28T07:50:43.757Z,1.10
2017-08-28T07:53:11.345Z,1.50
2017-08-28T07:55:39.747Z,1.40
2017-08-28T07:58:07.264Z,1.30
2017-08-28T08:00:34.872Z,1.20
2017-08-28T08:03:02.424Z,1.57
2017-08-28T08:05:29.938Z,1.37
2017-08-28T08:07:57.555Z,0.93
2017-08-28T08:10:25.212Z,2.70
2017-08-28T08:12:52.755Z,1.83
2017-08-28T08:15:20.307Z,3.00
2017-08-28T08:17:47.795Z,3.80
2017-08-28T08:20:15.426Z,2.33
2017-08-28T08:22:42.969Z,2.90
2017-08-28T08:25:10.511Z,2.23
2017-08-28T08:27:38.066Z,4.67
2017-08-28T08:30:05.662Z,2.20
2017-08-28T08:32:33.186Z,2.67
2017-08-28T08:35:00.738Z,3.57
2017-08-28T08:37:28.336Z,4.13
2017-08-28T08:39:55.868Z,2.20
2017-08-28T08:42:24.193Z,7.97
2017-08-28T08:44:51.799Z,3.20
2017-08-28T08:47:20.028Z,1.87
2017-08-28T08:49:47.535Z,3.47
2017-08-28T08:52:15.134Z,3.00
2017-08-28T08:54:42.728Z,1.60
2017-08-28T08:57:10.270Z,4.90
2017-08-28T08:59:38.047Z,3.27
2017-08-28T09:02:05.566Z,1.70
2017-08-28T09:04:33.105Z,2.07
2017-08-28T09:07:00.848Z,2.80
2017-08-28T09:09:28.459Z,4.73
2017-08-28T09:11:55.984Z,1.60
2017-08-28T09:14:23.655Z,3.27
2017-08-28T09:16:51.202Z,2.03
2017-08-28T09:19:18.844Z,2.23
2017-08-28T09:21:46.577Z,4.07
2017-08-28T09:24:14.160Z,2.10
2017-08-28T09:26:41.768Z,6.03
2017-08-28T09:29:09.597Z,2.13
2017-08-28T09:31:37.929Z,2.80
2017-08-28T09:34:05.438Z,3.73
2017-08-28T09:36:33.989Z,3.73
2017-08-28T09:39:01.488Z,3.30
2017-08-28T09:41:29.047Z,4.03
2017-08-28T09:43:56.627Z,4.30
2017-08-28T09:46:24.208Z,3.63
2017-08-28T09:48:51.766Z,4.43
2017-08-28T09:51:19.366Z,7.00
2017-08-28T09:53:46.886Z,5.75
2017-08-28T09:56:14.394Z,4.82
2017-08-28T09:58:42.014Z,6.65
2017-08-28T10:01:09.515Z,5.55
2017-08-28T10:03:37.085Z,5.53
2017-08-28T10:06:04.693Z,3.73
2017-08-28T10:08:32.295Z,3.40
2017-08-28T10:10:59.861Z,10.33
2017-08-28T10:13:27.492Z,2.13
2017-08-28T10:15:55.034Z,3.30
2017-08-28T10:18:22.625Z,2.30
2017-08-28T10:20:50.172Z,8.30
2017-08-28T10:31:50.275Z,4.40
2017-08-28T10:34:17.842Z,5.20
2017-08-28T10:36:45.396Z,7.10
2017-08-28T10:39:12.978Z,2.30
2017-08-28T10:41:40.493Z,6.17
2017-08-28T10:44:08.068Z,3.33
2017-08-28T10:46:35.821Z,4.73
2017-08-28T10:49:03.495Z,8.93
2017-08-28T10:51:31.063Z,6.30
2017-08-28T10:53:58.679Z,2.60
2017-08-28T10:56:26.258Z,3.60
2017-08-28T10:58:53.822Z,6.53
2017-08-28T11:01:21.435Z,5.53
2017-08-28T11:03:49.071Z,2.70
2017-08-28T11:06:16.652Z,2.53
2017-08-28T11:08:44.243Z,5.50
2017-08-28T11:11:11.763Z,3.40
2017-08-28T11:13:39.314Z,2.60
2017-08-28T11:16:06.948Z,4.00
2017-08-28T11:18:34.515Z,4.87
2017-08-28T11:21:02.188Z,19.43
2017-08-28T11:23:29.974Z,3.33
2017-08-28T11:25:57.599Z,1.50
2017-08-28T11:28:25.227Z,3.73
2017-08-28T11:30:52.876Z,6.23
2017-08-28T11:33:20.624Z,2.10
2017-08-28T11:35:48.145Z,4.27
2017-08-28T11:38:15.754Z,3.43
2017-08-28T11:40:43.326Z,7.27
2017-08-28T11:43:10.836Z,6.53
2017-08-28T11:45:38.729Z,4.60
2017-08-28T11:48:06.292Z,7.83
2017-08-28T11:50:33.941Z,4.07
2017-08-28T11:53:01.584Z,8.20
2017-08-28T11:55:29.165Z,32.17
2017-08-28T11:57:56.669Z,5.93
2017-08-28T12:00:24.252Z,2.63
2017-08-28T12:02:51.792Z,5.60
2017-08-28T12:05:19.344Z,7.90
2017-08-28T12:07:46.926Z,9.17
2017-08-28T12:10:14.481Z,4.40
2017-08-28T12:12:42.054Z,3.30
2017-08-28T12:15:09.624Z,7.13
2017-08-28T12:17:37.188Z,3.13
2017-08-28T12:20:04.802Z,4.80
2017-08-28T12:22:32.381Z,3.27
2017-08-28T12:24:59.926Z,4.30
2017-08-28T12:27:27.491Z,4.33
2017-08-28T12:29:55.147Z,14.25
2017-08-28T12:32:22.666Z,8.73
2017-08-28T12:34:50.200Z,119.53
2017-08-28T12:37:18.031Z,6.67
2017-08-28T12:39:45.625Z,6.60
2017-08-28T12:42:13.132Z,4.33
2017-08-28T12:44:40.765Z,7.00
2017-08-28T12:47:08.397Z,5.53
2017-08-28T12:49:36.004Z,11.10
2017-08-28T12:52:03.639Z,7.50
2017-08-28T12:54:31.238Z,4.03
2017-08-28T12:56:59.713Z,3.50
2017-08-28T12:59:27.418Z,7.65
2017-08-28T13:01:54.961Z,6.43
2017-08-28T13:04:22.464Z,7.47
2017-08-28T13:06:50.094Z,10.90
2017-08-28T13:09:17.856Z,8.45
2017-08-28T13:11:45.464Z,4.35
2017-08-28T13:14:13.096Z,5.50
2017-08-28T13:16:40.684Z,3.12
2017-08-28T13:19:08.284Z,4.40
2017-08-28T13:21:36.052Z,8.85
2017-08-28T13:24:03.684Z,3.75
2017-08-28T13:26:31.285Z,4.87
2017-08-28T13:28:59.351Z,4.53
2017-08-28T13:31:26.984Z,3.92
2017-08-28T13:33:54.609Z,6.40
2017-08-28T13:36:22.214Z,7.00
2017-08-28T13:38:49.806Z,4.28
2017-08-28T13:41:17.335Z,3.37
2017-08-28T13:43:45.129Z,2.83
2017-08-28T13:46:12.668Z,5.97
2017-08-28T13:48:40.264Z,3.65
2017-08-28T13:51:07.823Z,4.37
2017-08-28T13:53:36.621Z,5.72
2017-08-28T13:56:04.206Z,3.97
2017-08-28T13:58:31.874Z,6.68
2017-08-28T14:00:59.459Z,7.45
2017-08-28T14:03:27.124Z,2.55
2017-08-28T14:05:54.773Z,3.58
2017-08-28T14:08:22.461Z,6.57
2017-08-28T14:10:50.111Z,4.05
2017-08-28T14:13:17.855Z,4.22
2017-08-28T14:15:45.529Z,6.12
2017-08-28T14:18:13.241Z,6.40
2017-08-28T14:23:14.987Z,3.58
2017-08-28T14:25:42.663Z,3.28
2017-08-28T14:28:11.274Z,6.90
2017-08-28T14:30:38.889Z,2.35
2017-08-28T14:33:06.638Z,4.05
2017-08-28T14:35:34.220Z,3.12
2017-08-28T14:38:01.753Z,5.20
2017-08-28T14:40:29.796Z,6.28
2017-08-28T14:42:57.419Z,2.05
2017-08-28T14:45:25.020Z,1.90
2017-08-28T14:47:53.650Z,4.90
2017-08-28T14:50:21.349Z,2.35
2017-08-28T14:52:48.999Z,5.43
2017-08-28T14:55:16.628Z,2.12
2017-08-28T14:57:44.245Z,3.40
2017-08-28T15:00:11.905Z,3.35
2017-08-28T15:02:39.667Z,4.65
2017-08-28T15:05:08.050Z,2.40
2017-08-28T15:07:36.357Z,3.47
2017-08-28T15:10:03.984Z,2.45
2017-08-28T15:12:31.600Z,2.55
2017-08-28T15:14:59.222Z,3.65
2017-08-28T15:17:26.858Z,6.15
2017-08-28T15:19:55.559Z,4.00
2017-08-28T15:22:23.188Z,4.22
2017-08-28T15:24:50.776Z,2.70
2017-08-28T15:27:18.360Z,3.15
2017-08-28T15:29:45.904Z,4.22
2017-08-28T15:32:13.473Z,6.75
2017-08-28T15:34:41.116Z,5.87
2017-08-28T15:37:08.676Z,3.00
2017-08-28T15:39:36.476Z,6.10
2017-08-28T15:42:04.864Z,2.90
2017-08-28T15:44:42.731Z,3.70
2017-08-28T15:47:14.777Z,4.35
2017-08-28T15:49:42.690Z,5.35
2017-08-28T15:52:11.533Z,3.40
2017-08-28T15:54:39.243Z,4.28
2017-08-28T15:57:06.925Z,6.80
2017-08-28T15:59:34.521Z,3.28
2017-08-28T16:02:02.084Z,4.30
2017-08-28T16:04:29.847Z,3.37
2017-08-28T16:06:57.401Z,3.40
2017-08-28T16:09:24.967Z,7.68
2017-08-28T16:11:52.697Z,8.23
2017-08-28T16:14:21.144Z,6.30
2017-08-28T16:16:48.801Z,10.23
2017-08-28T16:19:16.435Z,5.85
2017-08-28T16:21:44.063Z,7.20
2017-08-28T16:24:12.367Z,14.77
2017-08-28T16:26:40.156Z,10.38
2017-08-28T16:29:08.517Z,7.87
2017-08-28T16:31:36.280Z,3.67
2017-08-28T16:34:03.916Z,6.93
2017-08-28T16:36:31.571Z,4.28
2017-08-28T16:38:59.157Z,5.82
2017-08-28T16:41:26.775Z,6.37
2017-08-28T16:43:54.855Z,4.90
2017-08-28T16:46:23.540Z,9.25
2017-08-28T16:48:51.434Z,3.95
2017-08-28T16:51:19.545Z,7.65
2017-08-28T16:53:47.990Z,6.28
2017-08-28T16:56:15.645Z,5.20
2017-08-28T16:58:43.308Z,3.15
2017-08-28T17:01:11.716Z,3.42
2017-08-28T17:03:39.332Z,6.62
2017-08-28T17:06:06.949Z,15.75
2017-08-28T17:08:35.461Z,6.15
2017-08-28T17:11:06.028Z,5.93
2017-08-28T17:13:33.687Z,3.83
2017-08-28T17:16:01.641Z,3.78
2017-08-28T17:18:29.401Z,4.60
2017-08-28T17:20:57.782Z,5.32
2017-08-28T17:23:25.473Z,4.35
2017-08-28T17:25:53.258Z,4.30
2017-08-28T17:28:21.816Z,6.43
2017-08-28T17:30:49.425Z,4.55
2017-08-28T17:33:17.237Z,5.12
2017-08-28T17:35:44.952Z,5.30
2017-08-28T17:38:12.724Z,8.00
2017-08-28T17:40:42.561Z,9.32
2017-08-28T17:43:11.093Z,14.30
2017-08-28T17:45:38.933Z,4.93
2017-08-28T17:48:07.724Z,7.78
2017-08-28T17:50:36.385Z,6.55
2017-08-28T17:53:06.079Z,10.85
2017-08-28T17:55:34.373Z,12.75
2017-08-28T17:58:02.079Z,10.27
2017-08-28T18:00:29.785Z,5.62
2017-08-28T18:02:57.758Z,8.25
2017-08-28T18:05:25.438Z,11.82
2017-08-28T18:07:53.073Z,13.55
2017-08-28T18:10:20.896Z,17.48
2017-08-28T18:12:48.577Z,8.77
2017-08-28T18:15:16.408Z,10.85
2017-08-28T18:17:44.205Z,11.70
2017-08-28T18:20:12.751Z,14.05
2017-08-28T18:22:42.454Z,9.40
2017-08-28T18:25:10.308Z,9.40
2017-08-28T18:30:31.655Z,10.98
2017-08-28T18:32:59.335Z,9.75
2017-08-28T18:35:27.228Z,15.10
2017-08-28T18:37:55.038Z,15.70
2017-08-28T18:40:22.839Z,15.27
2017-08-28T18:42:50.597Z,15.25
2017-08-28T18:45:20.537Z,16.05
2017-08-28T18:47:49.002Z,11.93
2017-08-28T18:50:17.104Z,20.67
2017-08-28T18:52:45.019Z,23.27
2017-08-28T18:55:13.642Z,14.52
2017-08-28T18:57:42.487Z,15.32
2017-08-28T19:00:10.445Z,10.38
2017-08-28T19:02:38.229Z,14.15
2017-08-28T19:05:06.034Z,15.43
2017-08-28T19:07:34.492Z,10.80
2017-08-28T19:10:02.527Z,12.63
2017-08-28T19:12:30.689Z,11.82
2017-08-28T19:14:59.228Z,12.27
2017-08-28T19:17:28.435Z,15.07
2017-08-28T19:19:57.122Z,18.98
2017-08-28T19:22:25.566Z,10.32
2017-08-28T19:24:53.237Z,15.18
2017-08-28T19:27:21.294Z,16.35
2017-08-28T19:29:50.221Z,11.45
2017-08-28T19:32:23.193Z,13.70
2017-08-28T19:34:52.542Z,10.30
2017-08-28T19:37:20.477Z,12.48
2017-08-28T19:39:48.285Z,12.95
2017-08-28T19:42:16.876Z,10.70
2017-08-28T19:44:45.389Z,10.95
2017-08-28T19:47:13.287Z,11.82
2017-08-28T19:49:43.039Z,13.62
2017-08-28T19:52:10.889Z,15.55
2017-08-28T19:54:38.630Z,19.58
2017-08-28T19:57:06.398Z,11.00
2017-08-28T19:59:34.162Z,14.95
2017-08-28T20:02:02.973Z,12.57
2017-08-28T20:04:31.993Z,14.10
2017-08-28T20:06:59.721Z,18.08
2017-08-28T20:09:27.511Z,13.90
2017-08-28T20:11:56.449Z,14.48
2017-08-28T20:14:24.052Z,14.05
2017-08-28T20:16:51.925Z,11.50
2017-08-28T20:19:19.601Z,15.82
2017-08-28T20:21:47.312Z,13.68
2017-08-28T20:24:15.767Z,12.27
2017-08-28T20:26:43.849Z,10.50
2017-08-28T20:29:11.551Z,13.80
2017-08-28T20:31:39.132Z,10.05
2017-08-28T20:34:06.764Z,14.63
2017-08-28T20:36:34.382Z,19.40
2017-08-28T20:39:02.017Z,11.48
2017-08-28T20:41:29.664Z,18.50
2017-08-28T20:43:57.357Z,9.70
2017-08-28T20:46:25.463Z,14.13
2017-08-28T20:48:53.139Z,15.25
2017-08-28T20:51:20.694Z,11.48
2017-08-28T20:53:48.277Z,19.83
2017-08-28T20:56:16.069Z,18.42
2017-08-28T20:58:44.521Z,15.80
2017-08-28T21:01:12.275Z,19.02
2017-08-28T21:03:39.853Z,13.32
2017-08-28T21:06:07.442Z,14.55
2017-08-28T21:08:34.997Z,14.70
2017-08-28T21:11:02.601Z,15.65
2017-08-28T21:13:30.921Z,20.27
2017-08-28T21:15:58.523Z,11.75
2017-08-28T21:18:26.314Z,22.92
2017-08-28T21:20:53.863Z,23.25
2017-08-28T21:23:21.406Z,21.60
2017-08-28T21:25:49.539Z,18.30
2017-08-28T21:28:17.095Z,16.05
2017-08-28T21:30:44.619Z,15.27
2017-08-28T21:33:12.195Z,20.23
2017-08-28T21:35:39.753Z,14.82
2017-08-28T21:38:07.309Z,12.63
2017-08-28T21:40:35.063Z,12.07
2017-08-28T21:43:02.637Z,13.62
2017-08-28T21:45:30.205Z,14.93
2017-08-28T21:47:57.833Z,17.42
2017-08-28T21:50:25.433Z,17.92
2017-08-28T21:52:53.041Z,15.32
2017-08-28T21:55:20.621Z,13.07
2017-08-28T21:57:48.200Z,23.80
2017-08-28T22:00:16.571Z,20.90
2017-08-28T22:02:44.322Z,15.85
2017-08-28T22:05:11.969Z,17.65
2017-08-28T22:07:39.534Z,14.35
2017-08-28T22:10:07.151Z,18.05
2017-08-28T22:12:34.709Z,21.37
2017-08-28T22:15:02.257Z,22.42
2017-08-28T22:17:29.943Z,14.02
2017-08-28T22:19:57.554Z,14.70
2017-08-28T22:22:25.080Z,19.08
2017-08-28T22:24:52.829Z,25.67
2017-08-28T22:27:20.414Z,22.92
2017-08-28T22:29:47.961Z,19.73
2017-08-28T22:32:15.593Z,23.80
2017-08-28T22:34:43.126Z,19.75
2017-08-28T22:37:10.700Z,31.55
2017-08-28T22:39:38.315Z,22.67
2017-08-28T22:42:05.870Z,20.02
2017-08-28T22:44:33.420Z,27.10
2017-08-28T22:47:01.094Z,31.35
2017-08-28T22:49:28.661Z,24.58
2017-08-28T22:51:56.210Z,36.90
2017-08-28T22:54:23.818Z,23.25
2017-08-28T22:56:51.378Z,32.10
2017-08-28T22:59:18.940Z,31.40
2017-08-28T23:01:46.478Z,32.80
2017-08-28T23:04:13.983Z,36.58
2017-08-28T23:06:41.547Z,38.05
2017-08-28T23:09:09.115Z,30.67
2017-08-28T23:11:37.507Z,38.97
2017-08-28T23:14:05.098Z,38.47
2017-08-28T23:16:32.697Z,35.70
2017-08-28T23:19:00.199Z,27.83
2017-08-28T23:21:27.744Z,38.75
2017-08-28T23:23:55.360Z,29.20
2017-08-28T23:26:22.883Z,50.40
2017-08-28T23:28:50.476Z,31.92
2017-08-28T23:31:18.092Z,36.70
2017-08-28T23:33:45.644Z,33.25
2017-08-28T23:36:13.179Z,24.58
2017-08-28T23:38:40.931Z,32.65
2017-08-28T23:41:08.454Z,20.27
2017-08-28T23:43:35.993Z,27.30
2017-08-28T23:46:03.588Z,26.08
2017-08-28T23:48:31.111Z,31.30
2017-08-28T23:50:58.669Z,27.58
2017-08-28T23:53:26.285Z,23.85
2017-08-28T23:55:53.845Z,36.65
2017-08-28T23:58:21.408Z,20.27
